Dublin, Virginia
Current Conditions -  °F | °C
As of 10:55 AM on Friday 21 Nov 2014 (Local Time) from KPSK Reporting Station
Clear Clear  
Wind Chill: 26°   Ceiling: Unl
Heat Index: 33°   Visibility: 10mi
Dew Point: 10°   Wind: 8mph
Humidity: 39%   Direction: 320°NW
Pressure: 30.4"   Gusts: 17mph
Location:  37.11°N, 80.69°W
Report Text: KPSK 211555Z AUTO 32007G15KT 10SM CLR 01/M12 A3040 RMK AO2 T00071120
Loading
Personal Weather Stations






























Interactive Weather Map New forecast layout! Learn more

10-Day Weather Forecast

Advertisements
Track Severe Weather on mobile